createdAt,value
2022-11-04T00:02:05.097Z,15.40
2022-11-04T00:04:32.553Z,15.40
2022-11-04T00:07:23.793Z,15.40
2022-11-04T00:09:53.430Z,15.40
2022-11-04T00:12:33.102Z,15.40
2022-11-04T00:18:11.894Z,15.30
2022-11-04T00:21:45.562Z,15.40
2022-11-04T00:24:33.160Z,15.40
2022-11-04T00:27:19.459Z,15.40
2022-11-04T00:33:32.967Z,15.40
2022-11-04T00:36:00.363Z,15.40
2022-11-04T00:39:30.825Z,15.50
2022-11-04T00:42:26.795Z,15.50
2022-11-04T00:45:23.537Z,15.50
2022-11-04T00:48:06.468Z,15.50
2022-11-04T00:50:34.104Z,15.50
2022-11-04T00:53:02.214Z,15.40
2022-11-04T00:55:29.959Z,15.50
2022-11-04T00:57:58.679Z,15.40
2022-11-04T01:00:26.355Z,15.40
2022-11-04T01:04:01.848Z,15.50
2022-11-04T01:06:29.115Z,15.50
2022-11-04T01:13:22.730Z,15.50
2022-11-04T01:15:50.511Z,15.60
2022-11-04T01:18:19.144Z,15.60
2022-11-04T01:28:16.807Z,15.70
2022-11-04T01:29:54.566Z,15.70
2022-11-04T01:32:21.937Z,15.60
2022-11-04T01:34:59.868Z,15.70
2022-11-04T01:37:27.270Z,15.70
2022-11-04T01:39:54.595Z,15.70
2022-11-04T01:42:22.980Z,15.70
2022-11-04T01:44:53.149Z,15.70
2022-11-04T01:48:14.675Z,15.80
2022-11-04T01:50:42.056Z,15.80
2022-11-04T01:53:16.436Z,15.80
2022-11-04T01:55:54.479Z,15.80
2022-11-04T01:58:25.889Z,15.80
2022-11-04T02:01:34.266Z,15.80
2022-11-04T02:08:08.457Z,15.80
2022-11-04T02:10:38.034Z,15.80
2022-11-04T02:13:06.236Z,15.80
2022-11-04T02:15:48.938Z,15.70
2022-11-04T02:18:39.844Z,15.80
2022-11-04T02:21:17.667Z,15.70
2022-11-04T02:28:34.723Z,15.70
2022-11-04T02:35:41.793Z,15.80
2022-11-04T02:38:14.982Z,15.80
2022-11-04T02:45:14.909Z,15.80
2022-11-04T02:47:51.504Z,15.80
2022-11-04T02:50:38.078Z,15.80
2022-11-04T02:53:16.625Z,15.90
2022-11-04T02:56:42.936Z,15.90
2022-11-04T02:59:50.176Z,15.90
2022-11-04T03:06:55.016Z,16.00
2022-11-04T03:09:41.016Z,16.00
2022-11-04T03:12:15.055Z,16.00
2022-11-04T03:14:48.530Z,16.00
2022-11-04T03:17:27.335Z,16.00
2022-11-04T03:20:28.299Z,16.00
2022-11-04T03:23:02.007Z,16.00
2022-11-04T03:25:38.506Z,16.00
2022-11-04T03:28:25.709Z,16.00
2022-11-04T03:31:00.037Z,16.00
2022-11-04T03:33:40.123Z,16.00
2022-11-04T03:40:41.881Z,16.00
2022-11-04T03:43:14.317Z,16.00
2022-11-04T03:46:09.845Z,16.10
2022-11-04T03:48:37.467Z,16.10
2022-11-04T03:51:04.848Z,16.10
2022-11-04T03:53:32.925Z,16.10
2022-11-04T03:56:29.914Z,16.10
2022-11-04T03:59:23.301Z,16.20
2022-11-04T04:01:55.734Z,16.20
2022-11-04T04:04:38.747Z,16.30
2022-11-04T04:10:59.750Z,16.20
2022-11-04T04:13:43.448Z,16.30
2022-11-04T04:17:07.309Z,16.30
2022-11-04T04:25:13.972Z,16.20
2022-11-04T04:28:30.285Z,16.20
2022-11-04T04:31:02.326Z,16.20
2022-11-04T04:33:29.879Z,16.10
2022-11-04T04:36:00.898Z,16.10
2022-11-04T04:45:38.653Z,16.00
2022-11-04T04:48:19.257Z,16.00
2022-11-04T04:51:14.845Z,15.90
2022-11-04T04:53:42.203Z,15.90
2022-11-04T04:56:09.767Z,15.90
2022-11-04T05:01:55.094Z,15.90
2022-11-04T05:04:31.125Z,16.00
2022-11-04T05:06:58.543Z,16.00
2022-11-04T05:10:15.221Z,16.00
2022-11-04T05:13:01.485Z,16.00
2022-11-04T05:15:30.131Z,16.00
2022-11-04T05:17:59.443Z,16.00
2022-11-04T05:24:14.386Z,16.00
2022-11-04T05:29:56.212Z,16.00
2022-11-04T05:32:23.776Z,16.00
2022-11-04T05:37:53.089Z,16.00
2022-11-04T05:53:21.788Z,16.00
2022-11-04T05:55:53.368Z,16.00
2022-11-04T06:01:31.105Z,16.00
2022-11-04T06:07:59.547Z,15.90
2022-11-04T06:10:30.296Z,15.90
2022-11-04T06:13:03.152Z,16.00
2022-11-04T06:15:30.554Z,16.00
2022-11-04T06:17:57.889Z,16.00
2022-11-04T06:20:25.321Z,15.90
2022-11-04T06:27:07.533Z,15.90
2022-11-04T06:29:41.100Z,15.80
2022-11-04T06:32:09.792Z,15.80
2022-11-04T06:34:37.504Z,15.80
2022-11-04T06:37:04.866Z,15.70
2022-11-04T06:39:32.805Z,15.80
2022-11-04T06:42:02.705Z,15.70
2022-11-04T06:44:31.787Z,15.70
2022-11-04T06:46:59.469Z,15.70
2022-11-04T06:49:26.926Z,15.70
2022-11-04T06:54:41.788Z,15.80
2022-11-04T06:57:11.833Z,15.70
2022-11-04T06:59:39.659Z,15.60
2022-11-04T07:02:07.724Z,15.60
2022-11-04T07:04:39.655Z,15.50
2022-11-04T07:07:06.967Z,15.40
2022-11-04T07:09:35.386Z,15.30
2022-11-04T07:12:04.473Z,15.30
2022-11-04T07:14:31.913Z,15.20
2022-11-04T07:16:59.361Z,15.00
2022-11-04T07:19:26.637Z,14.90
2022-11-04T07:21:53.951Z,14.70
2022-11-04T07:24:21.358Z,14.60
2022-11-04T07:26:48.640Z,14.50
2022-11-04T07:29:16.077Z,14.40
2022-11-04T07:32:03.597Z,14.30
2022-11-04T07:34:30.871Z,14.20
2022-11-04T07:36:58.186Z,14.20
2022-11-04T07:39:25.525Z,14.10
2022-11-04T07:41:59.156Z,14.10
2022-11-04T07:44:26.964Z,14.10
2022-11-04T07:46:54.284Z,14.00
2022-11-04T07:49:21.931Z,14.00
2022-11-04T07:51:52.022Z,14.00
2022-11-04T07:54:19.282Z,14.00
2022-11-04T07:56:46.731Z,14.00
2022-11-04T07:59:14.264Z,14.00
2022-11-04T08:01:44.716Z,14.10
2022-11-04T08:04:12.100Z,14.10
2022-11-04T08:06:39.414Z,14.00
2022-11-04T08:09:06.896Z,13.90
2022-11-04T08:11:34.288Z,13.80
2022-11-04T08:14:03.898Z,13.80
2022-11-04T08:16:34.344Z,14.10
2022-11-04T08:19:02.814Z,14.70
2022-11-04T08:21:32.113Z,15.30
2022-11-04T08:23:59.584Z,15.80
2022-11-04T08:27:01.321Z,16.40
2022-11-04T08:29:29.483Z,17.00
2022-11-04T08:31:56.867Z,17.70
2022-11-04T08:34:24.155Z,18.20
2022-11-04T08:36:54.021Z,18.30
2022-11-04T08:39:21.566Z,17.50
2022-11-04T08:41:52.243Z,17.30
2022-11-04T08:44:21.872Z,17.30
2022-11-04T08:46:49.573Z,17.20
2022-11-04T08:49:21.032Z,17.40
2022-11-04T08:52:20.356Z,17.00
2022-11-04T08:54:48.034Z,16.80
2022-11-04T08:57:15.695Z,16.70
2022-11-04T08:59:43.230Z,16.90
2022-11-04T09:02:15.798Z,17.10
2022-11-04T09:04:43.447Z,16.80
2022-11-04T09:07:11.937Z,16.90
2022-11-04T09:09:41.042Z,17.00
2022-11-04T09:12:12.047Z,17.10
2022-11-04T09:14:39.663Z,17.00
2022-11-04T09:17:07.135Z,17.00
2022-11-04T09:19:34.473Z,17.00
2022-11-04T09:22:01.738Z,16.90
2022-11-04T09:24:30.010Z,16.60
2022-11-04T09:27:21.989Z,16.60
2022-11-04T09:29:49.800Z,16.40
2022-11-04T09:32:17.214Z,16.30
2022-11-04T09:34:44.530Z,16.20
2022-11-04T09:37:11.836Z,16.20
2022-11-04T09:39:39.163Z,16.20
2022-11-04T09:42:25.102Z,16.10
2022-11-04T09:47:52.944Z,16.20
2022-11-04T09:50:32.010Z,16.30
2022-11-04T09:53:06.822Z,16.30
2022-11-04T09:56:00.154Z,16.40
2022-11-04T09:58:35.034Z,16.80
2022-11-04T10:01:19.345Z,16.80
2022-11-04T10:03:59.038Z,16.70
2022-11-04T10:06:50.086Z,16.60
2022-11-04T10:09:28.651Z,16.30
2022-11-04T10:12:48.871Z,16.10
2022-11-04T10:15:43.942Z,16.00
2022-11-04T10:18:35.417Z,15.70
2022-11-04T10:21:40.217Z,15.60
2022-11-04T10:24:36.039Z,15.50
2022-11-04T10:27:40.639Z,15.50
2022-11-04T10:30:18.701Z,15.50
2022-11-04T10:32:53.024Z,15.40
2022-11-04T10:35:29.499Z,15.40
2022-11-04T10:38:27.219Z,15.50
2022-11-04T10:40:56.306Z,15.50
2022-11-04T10:43:37.366Z,15.50
2022-11-04T10:46:39.028Z,15.50
2022-11-04T10:50:00.195Z,15.60
2022-11-04T10:52:35.347Z,15.60
2022-11-04T10:55:31.101Z,15.50
2022-11-04T10:57:59.640Z,15.60
2022-11-04T11:00:39.569Z,15.80
2022-11-04T11:03:26.044Z,15.80
2022-11-04T11:05:55.214Z,15.90
2022-11-04T11:08:37.091Z,15.90
2022-11-04T11:11:06.804Z,15.90
2022-11-04T11:13:40.031Z,16.00
2022-11-04T11:16:19.205Z,16.10
2022-11-04T11:19:12.348Z,16.10
2022-11-04T11:21:45.472Z,16.20
2022-11-04T11:24:30.792Z,16.40
2022-11-04T11:27:11.833Z,16.50
2022-11-04T11:29:40.501Z,16.40
2022-11-04T11:32:35.903Z,16.40
2022-11-04T11:35:07.771Z,16.50
2022-11-04T11:37:36.895Z,16.60
2022-11-04T11:40:04.517Z,16.70
2022-11-04T11:42:32.594Z,16.80
2022-11-04T11:45:00.333Z,16.80
2022-11-04T11:47:30.371Z,16.80
2022-11-04T11:50:31.182Z,16.90
2022-11-04T11:53:15.350Z,17.00
2022-11-04T11:55:57.715Z,17.20
2022-11-04T12:02:13.113Z,17.30
2022-11-04T12:10:53.459Z,17.40
2022-11-04T12:13:29.103Z,17.30
2022-11-04T12:16:23.183Z,17.40
2022-11-04T12:18:56.567Z,17.40
2022-11-04T12:21:37.662Z,17.40
2022-11-04T12:24:06.907Z,17.50
2022-11-04T12:26:40.129Z,17.50
2022-11-04T12:29:29.861Z,17.50
2022-11-04T12:32:10.291Z,17.60
2022-11-04T12:35:23.879Z,17.60
2022-11-04T12:38:17.458Z,17.60
2022-11-04T12:41:37.672Z,17.70
2022-11-04T12:44:01.988Z,17.70
2022-11-04T12:46:47.740Z,17.80
2022-11-04T12:49:40.334Z,18.00
2022-11-04T12:52:42.582Z,18.00
2022-11-04T12:55:47.105Z,17.90
2022-11-04T12:58:24.310Z,17.90
2022-11-04T13:01:05.127Z,17.90
2022-11-04T13:04:11.879Z,17.90
2022-11-04T13:07:04.009Z,17.80
2022-11-04T13:10:12.401Z,17.70
2022-11-04T13:12:43.748Z,17.70
2022-11-04T13:15:28.532Z,17.60
2022-11-04T13:18:07.400Z,17.70
2022-11-04T13:24:31.912Z,17.70
2022-11-04T13:27:03.822Z,17.70
2022-11-04T13:29:34.607Z,17.80
2022-11-04T13:32:24.882Z,17.70
2022-11-04T13:35:12.691Z,17.60
2022-11-04T13:38:13.203Z,17.60
2022-11-04T13:41:31.025Z,17.50
2022-11-04T13:44:32.135Z,17.50
2022-11-04T13:47:04.446Z,17.60
2022-11-04T13:50:05.288Z,17.40
2022-11-04T13:52:52.908Z,17.40
2022-11-04T13:55:32.439Z,17.50
2022-11-04T13:58:02.631Z,17.50
2022-11-04T14:00:34.454Z,17.60
2022-11-04T14:03:27.100Z,17.60
2022-11-04T14:06:00.749Z,17.60
2022-11-04T14:08:28.677Z,17.50
2022-11-04T14:11:13.850Z,17.50
2022-11-04T14:16:52.137Z,17.50
2022-11-04T14:19:48.658Z,17.50
2022-11-04T14:26:51.767Z,17.60
2022-11-04T14:29:34.500Z,17.60
2022-11-04T14:32:04.786Z,17.60
2022-11-04T14:34:36.800Z,17.60
2022-11-04T14:37:20.291Z,17.60
2022-11-04T14:39:56.775Z,17.60
2022-11-04T14:42:51.449Z,17.50
2022-11-04T14:45:47.466Z,17.50
2022-11-04T14:48:57.606Z,17.50
2022-11-04T14:51:40.616Z,17.50
2022-11-04T14:54:24.859Z,17.40
2022-11-04T14:56:52.940Z,17.40
2022-11-04T14:59:47.058Z,17.30
2022-11-04T15:02:19.467Z,17.30
2022-11-04T15:05:16.434Z,17.30
2022-11-04T15:07:43.669Z,17.30
2022-11-04T15:10:30.376Z,17.20
2022-11-04T15:13:02.266Z,17.10
2022-11-04T15:18:50.429Z,17.10
2022-11-04T15:28:51.136Z,16.90
2022-11-04T15:31:57.080Z,16.70
2022-11-04T15:34:26.826Z,16.70
2022-11-04T15:37:00.885Z,16.70
2022-11-04T15:39:46.257Z,16.60
2022-11-04T15:42:51.089Z,16.50
2022-11-04T15:49:07.507Z,16.30
2022-11-04T15:54:58.289Z,16.10
2022-11-04T16:01:54.623Z,16.00
2022-11-04T16:04:53.535Z,15.90
2022-11-04T16:07:23.711Z,15.80
2022-11-04T16:09:54.067Z,15.80
2022-11-04T16:12:59.123Z,15.60
2022-11-04T16:16:09.071Z,15.60
2022-11-04T16:18:54.592Z,15.50
2022-11-04T16:21:26.997Z,15.40
2022-11-04T16:24:01.513Z,15.30
2022-11-04T16:26:37.488Z,15.40
2022-11-04T16:32:31.118Z,15.20
2022-11-04T16:35:02.835Z,15.00
2022-11-04T16:37:31.624Z,14.90
2022-11-04T16:40:21.783Z,14.80
2022-11-04T16:42:52.246Z,14.70
2022-11-04T16:45:33.110Z,14.80
2022-11-04T16:48:02.599Z,14.70
2022-11-04T16:50:32.033Z,14.60
2022-11-04T16:52:59.666Z,14.60
2022-11-04T16:55:29.829Z,14.60
2022-11-04T16:58:30.053Z,14.50
2022-11-04T17:01:23.210Z,14.50
2022-11-04T17:03:50.684Z,14.50
2022-11-04T17:06:18.927Z,14.50
2022-11-04T17:08:46.743Z,14.50
2022-11-04T17:11:14.317Z,14.50
2022-11-04T17:13:42.357Z,14.50
2022-11-04T17:16:15.163Z,14.40
2022-11-04T17:18:42.469Z,14.40
2022-11-04T17:21:17.201Z,14.30
2022-11-04T17:23:44.665Z,14.30
2022-11-04T17:26:12.559Z,14.30
2022-11-04T17:28:40.027Z,14.20
2022-11-04T17:31:10.061Z,14.20
2022-11-04T17:33:37.347Z,14.10
2022-11-04T17:36:07.951Z,14.20
2022-11-04T17:38:35.745Z,14.30
2022-11-04T17:41:24.892Z,14.30
2022-11-04T17:48:20.336Z,14.20
2022-11-04T17:50:49.184Z,14.20
2022-11-04T17:53:40.127Z,14.30
2022-11-04T18:02:07.779Z,14.10
2022-11-04T18:05:39.121Z,13.90
2022-11-04T18:08:10.552Z,13.80
2022-11-04T18:10:40.798Z,13.80
2022-11-04T18:13:13.261Z,13.80
2022-11-04T18:16:31.297Z,13.80
2022-11-04T18:18:59.790Z,13.70
2022-11-04T18:21:31.023Z,13.70
2022-11-04T18:23:59.490Z,13.60
2022-11-04T18:26:27.469Z,13.60
2022-11-04T18:28:56.111Z,13.60
2022-11-04T18:31:35.425Z,13.50
2022-11-04T18:34:43.392Z,13.50
2022-11-04T18:37:12.078Z,13.50
2022-11-04T18:43:07.648Z,13.50
2022-11-04T18:45:36.980Z,13.50
2022-11-04T18:48:21.510Z,13.50
2022-11-04T18:51:04.619Z,13.40
2022-11-04T18:53:36.868Z,13.40
2022-11-04T18:56:10.668Z,13.40
2022-11-04T18:58:55.054Z,13.30
2022-11-04T19:01:32.404Z,13.30
2022-11-04T19:04:00.487Z,13.30
2022-11-04T19:06:34.620Z,13.30
2022-11-04T19:09:32.484Z,13.30
2022-11-04T19:15:51.444Z,13.20
2022-11-04T19:25:10.519Z,13.30
2022-11-04T19:27:38.293Z,13.20
2022-11-04T19:30:06.310Z,13.10
2022-11-04T19:32:33.823Z,13.10
2022-11-04T19:35:05.488Z,13.10
2022-11-04T19:37:33.421Z,13.10
2022-11-04T19:40:09.885Z,13.10
2022-11-04T19:42:58.783Z,13.10
2022-11-04T19:45:26.349Z,13.10
2022-11-04T19:47:57.028Z,13.00
2022-11-04T19:50:24.384Z,12.90
2022-11-04T19:52:51.687Z,12.80
2022-11-04T19:59:16.071Z,12.70
2022-11-04T20:01:43.548Z,12.70
2022-11-04T20:04:15.807Z,12.70
2022-11-04T20:06:44.350Z,12.70
2022-11-04T20:09:15.156Z,12.80
2022-11-04T20:12:10.077Z,12.80
2022-11-04T20:14:37.429Z,12.70
2022-11-04T20:17:06.444Z,12.60
2022-11-04T20:19:34.894Z,12.50
2022-11-04T20:22:02.973Z,12.50
2022-11-04T20:24:30.401Z,12.60
2022-11-04T20:26:57.687Z,12.60
2022-11-04T20:29:25.002Z,12.60
2022-11-04T20:31:52.392Z,12.60
2022-11-04T20:34:22.284Z,12.60
2022-11-04T20:36:49.709Z,12.50
2022-11-04T20:39:19.112Z,12.50
2022-11-04T20:41:47.009Z,12.40
2022-11-04T20:44:15.323Z,12.40
2022-11-04T20:46:43.443Z,12.40
2022-11-04T20:49:11.695Z,12.40
2022-11-04T20:51:50.084Z,12.40
2022-11-04T20:54:20.899Z,12.40
2022-11-04T20:56:48.205Z,12.40
2022-11-04T20:59:16.658Z,12.40
2022-11-04T21:01:46.185Z,12.40
2022-11-04T21:04:29.498Z,12.30
2022-11-04T21:07:02.898Z,12.20
2022-11-04T21:09:30.286Z,12.20
2022-11-04T21:12:01.600Z,12.20
2022-11-04T21:14:30.352Z,12.20
2022-11-04T21:16:57.604Z,12.20
2022-11-04T21:20:16.277Z,12.20
2022-11-04T21:22:43.552Z,12.20
2022-11-04T21:25:10.793Z,12.20
2022-11-04T21:27:41.219Z,12.20
2022-11-04T21:30:12.882Z,12.20
2022-11-04T21:32:40.164Z,12.20
2022-11-04T21:35:07.753Z,12.10
2022-11-04T21:37:37.188Z,12.20
2022-11-04T21:40:05.169Z,12.30
2022-11-04T21:42:32.464Z,12.20
2022-11-04T21:44:59.971Z,12.10
2022-11-04T21:47:27.382Z,12.00
2022-11-04T21:49:57.296Z,12.00
2022-11-04T21:52:24.592Z,12.10
2022-11-04T21:54:51.845Z,12.10
2022-11-04T21:57:29.590Z,12.00
2022-11-04T22:00:18.533Z,11.90
2022-11-04T22:02:52.008Z,11.90
2022-11-04T22:05:44.946Z,11.90
2022-11-04T22:08:45.478Z,11.90
2022-11-04T22:11:18.577Z,11.90
2022-11-04T22:13:46.409Z,11.90
2022-11-04T22:16:19.576Z,11.90
2022-11-04T22:18:47.452Z,11.90
2022-11-04T22:21:17.157Z,11.90
2022-11-04T22:23:45.211Z,11.90
2022-11-04T22:26:18.595Z,11.90
2022-11-04T22:28:46.005Z,12.00
2022-11-04T22:31:19.171Z,12.00
2022-11-04T22:33:46.512Z,11.80
2022-11-04T22:36:14.285Z,11.90
2022-11-04T22:38:42.551Z,11.80
2022-11-04T22:41:31.108Z,11.80
2022-11-04T22:43:58.780Z,11.80
2022-11-04T22:46:31.682Z,11.80
2022-11-04T22:49:01.634Z,11.80
2022-11-04T22:51:31.189Z,11.80
2022-11-04T22:54:04.567Z,11.80
2022-11-04T22:56:35.376Z,11.80
2022-11-04T22:59:03.012Z,11.80
2022-11-04T23:01:31.914Z,11.80
2022-11-04T23:04:00.009Z,11.80
2022-11-04T23:06:27.741Z,11.80
2022-11-04T23:09:21.106Z,11.70
2022-11-04T23:12:06.995Z,11.70
2022-11-04T23:14:54.306Z,11.70
2022-11-04T23:17:41.304Z,11.70
2022-11-04T23:20:12.473Z,11.70
2022-11-04T23:22:58.774Z,11.70
2022-11-04T23:25:26.584Z,11.60
2022-11-04T23:28:13.957Z,11.50
2022-11-04T23:30:43.650Z,11.40
2022-11-04T23:33:13.603Z,11.40
2022-11-04T23:36:08.119Z,11.40
2022-11-04T23:38:35.610Z,11.40
2022-11-04T23:41:26.200Z,11.30
2022-11-04T23:43:53.687Z,11.30
2022-11-04T23:46:43.048Z,11.30
2022-11-04T23:49:14.859Z,11.30
2022-11-04T23:52:00.633Z,11.30
2022-11-04T23:54:46.574Z,11.30
2022-11-04T23:57:34.937Z,11.30
